sensor_id;sensor_type;location;lat;lon;timestamp;temperature;humidity
16305;DHT22;8261;47.678;-122.174;2023-05-07T00:01:17;14.50;99.90
16305;DHT22;8261;47.678;-122.174;2023-05-07T00:03:48;14.40;99.90
16305;DHT22;8261;47.678;-122.174;2023-05-07T00:06:21;14.20;99.90
16305;DHT22;8261;47.678;-122.174;2023-05-07T00:08:52;14.10;99.90
16305;DHT22;8261;47.678;-122.174;2023-05-07T00:11:23;14.10;99.90
16305;DHT22;8261;47.678;-122.174;2023-05-07T00:13:54;14.10;99.90
16305;DHT22;8261;47.678;-122.174;2023-05-07T00:16:25;14.10;99.90
16305;DHT22;8261;47.678;-122.174;2023-05-07T00:18:56;14.10;99.90
16305;DHT22;8261;47.678;-122.174;2023-05-07T00:21:29;14.10;99.90
16305;DHT22;8261;47.678;-122.174;2023-05-07T00:24:00;14.20;99.90
16305;DHT22;8261;47.678;-122.174;2023-05-07T00:26:30;14.10;99.90
16305;DHT22;8261;47.678;-122.174;2023-05-07T00:29:01;14.00;99.90
16305;DHT22;8261;47.678;-122.174;2023-05-07T00:31:33;13.90;99.90
16305;DHT22;8261;47.678;-122.174;2023-05-07T00:34:04;13.90;99.90
16305;DHT22;8261;47.678;-122.174;2023-05-07T00:36:38;13.70;99.90
16305;DHT22;8261;47.678;-122.174;2023-05-07T00:39:09;13.60;99.90
16305;DHT22;8261;47.678;-122.174;2023-05-07T00:41:40;13.70;99.90
16305;DHT22;8261;47.678;-122.174;2023-05-07T00:50:49;14.20;99.90
16305;DHT22;8261;47.678;-122.174;2023-05-07T00:53:21;14.60;99.90
16305;DHT22;8261;47.678;-122.174;2023-05-07T00:55:53;14.80;99.90
16305;DHT22;8261;47.678;-122.174;2023-05-07T00:58:25;15.00;99.90
16305;DHT22;8261;47.678;-122.174;2023-05-07T01:00:57;15.10;99.90
16305;DHT22;8261;47.678;-122.174;2023-05-07T01:03:29;15.30;99.90
16305;DHT22;8261;47.678;-122.174;2023-05-07T01:06:25;14.90;99.90
16305;DHT22;8261;47.678;-122.174;2023-05-07T01:15:10;14.60;99.90
16305;DHT22;8261;47.678;-122.174;2023-05-07T01:17:42;14.70;99.90
16305;DHT22;8261;47.678;-122.174;2023-05-07T01:22:58;14.80;99.90
16305;DHT22;8261;47.678;-122.174;2023-05-07T01:49:33;14.50;99.90
16305;DHT22;8261;47.678;-122.174;2023-05-07T01:52:05;14.40;99.90
16305;DHT22;8261;47.678;-122.174;2023-05-07T01:54:37;14.40;99.90
16305;DHT22;8261;47.678;-122.174;2023-05-07T01:57:08;14.30;99.90
16305;DHT22;8261;47.678;-122.174;2023-05-07T01:59:41;14.30;99.90
16305;DHT22;8261;47.678;-122.174;2023-05-07T02:02:12;14.30;99.90
16305;DHT22;8261;47.678;-122.174;2023-05-07T02:10:01;14.30;99.90
16305;DHT22;8261;47.678;-122.174;2023-05-07T02:12:36;14.40;99.90
16305;DHT22;8261;47.678;-122.174;2023-05-07T02:15:12;14.30;99.90
16305;DHT22;8261;47.678;-122.174;2023-05-07T02:17:59;14.20;99.90
16305;DHT22;8261;47.678;-122.174;2023-05-07T02:23:16;14.10;99.90
16305;DHT22;8261;47.678;-122.174;2023-05-07T02:25:48;14.10;99.90
16305;DHT22;8261;47.678;-122.174;2023-05-07T02:28:19;14.10;99.90
16305;DHT22;8261;47.678;-122.174;2023-05-07T02:31:06;13.90;99.90
16305;DHT22;8261;47.678;-122.174;2023-05-07T02:33:53;14.00;99.90
16305;DHT22;8261;47.678;-122.174;2023-05-07T02:36:24;13.90;99.90
16305;DHT22;8261;47.678;-122.174;2023-05-07T02:41:27;13.90;99.90
16305;DHT22;8261;47.678;-122.174;2023-05-07T02:43:58;13.90;99.90
16305;DHT22;8261;47.678;-122.174;2023-05-07T02:46:30;13.70;99.90
16305;DHT22;8261;47.678;-122.174;2023-05-07T02:49:02;13.60;99.90
16305;DHT22;8261;47.678;-122.174;2023-05-07T02:51:33;13.70;99.90
16305;DHT22;8261;47.678;-122.174;2023-05-07T02:54:05;13.60;99.90
16305;DHT22;8261;47.678;-122.174;2023-05-07T02:56:36;13.60;99.90
16305;DHT22;8261;47.678;-122.174;2023-05-07T02:59:08;13.50;99.90
16305;DHT22;8261;47.678;-122.174;2023-05-07T03:01:41;13.50;99.90
16305;DHT22;8261;47.678;-122.174;2023-05-07T03:04:13;13.40;99.90
16305;DHT22;8261;47.678;-122.174;2023-05-07T03:06:45;13.40;99.90
16305;DHT22;8261;47.678;-122.174;2023-05-07T03:09:16;13.30;99.90
16305;DHT22;8261;47.678;-122.174;2023-05-07T03:14:30;13.10;99.90
16305;DHT22;8261;47.678;-122.174;2023-05-07T03:17:05;13.10;99.90
16305;DHT22;8261;47.678;-122.174;2023-05-07T03:19:36;13.10;99.90
16305;DHT22;8261;47.678;-122.174;2023-05-07T03:22:07;13.00;99.90
16305;DHT22;8261;47.678;-122.174;2023-05-07T03:24:39;12.90;99.90
16305;DHT22;8261;47.678;-122.174;2023-05-07T03:27:10;12.90;99.90
16305;DHT22;8261;47.678;-122.174;2023-05-07T03:29:42;12.80;99.90
16305;DHT22;8261;47.678;-122.174;2023-05-07T03:32:15;12.80;99.90
16305;DHT22;8261;47.678;-122.174;2023-05-07T03:34:47;12.70;99.90
16305;DHT22;8261;47.678;-122.174;2023-05-07T03:37:19;12.80;99.90
16305;DHT22;8261;47.678;-122.174;2023-05-07T03:39:50;12.70;99.90
16305;DHT22;8261;47.678;-122.174;2023-05-07T03:42:22;12.70;99.90
16305;DHT22;8261;47.678;-122.174;2023-05-07T03:44:53;12.80;99.90
16305;DHT22;8261;47.678;-122.174;2023-05-07T03:47:27;12.70;99.90
16305;DHT22;8261;47.678;-122.174;2023-05-07T03:49:59;12.60;99.90
16305;DHT22;8261;47.678;-122.174;2023-05-07T03:52:32;12.60;99.90
16305;DHT22;8261;47.678;-122.174;2023-05-07T03:55:04;12.60;99.90
16305;DHT22;8261;47.678;-122.174;2023-05-07T03:57:36;12.50;99.90
16305;DHT22;8261;47.678;-122.174;2023-05-07T04:00:08;12.50;99.90
16305;DHT22;8261;47.678;-122.174;2023-05-07T04:02:42;12.50;99.90
16305;DHT22;8261;47.678;-122.174;2023-05-07T04:05:14;12.50;99.90
16305;DHT22;8261;47.678;-122.174;2023-05-07T04:07:46;12.40;99.90
16305;DHT22;8261;47.678;-122.174;2023-05-07T04:10:17;12.40;99.90
16305;DHT22;8261;47.678;-122.174;2023-05-07T04:12:49;12.40;99.90
16305;DHT22;8261;47.678;-122.174;2023-05-07T04:15:20;12.40;99.90
16305;DHT22;8261;47.678;-122.174;2023-05-07T04:17:55;12.40;99.90
16305;DHT22;8261;47.678;-122.174;2023-05-07T04:20:26;12.40;99.90
16305;DHT22;8261;47.678;-122.174;2023-05-07T04:22:58;12.30;99.90
16305;DHT22;8261;47.678;-122.174;2023-05-07T04:25:29;12.30;99.90
16305;DHT22;8261;47.678;-122.174;2023-05-07T04:28:00;12.30;99.90
16305;DHT22;8261;47.678;-122.174;2023-05-07T04:30:32;12.30;99.90
16305;DHT22;8261;47.678;-122.174;2023-05-07T04:33:05;12.30;99.90
16305;DHT22;8261;47.678;-122.174;2023-05-07T04:35:37;12.30;99.90
16305;DHT22;8261;47.678;-122.174;2023-05-07T04:38:09;12.30;99.90
16305;DHT22;8261;47.678;-122.174;2023-05-07T04:40:40;12.30;99.90
16305;DHT22;8261;47.678;-122.174;2023-05-07T04:43:12;12.20;99.90
16305;DHT22;8261;47.678;-122.174;2023-05-07T04:45:45;12.20;99.90
16305;DHT22;8261;47.678;-122.174;2023-05-07T04:48:18;12.10;99.90
16305;DHT22;8261;47.678;-122.174;2023-05-07T04:50:50;12.10;99.90
16305;DHT22;8261;47.678;-122.174;2023-05-07T04:53:21;12.10;99.90
16305;DHT22;8261;47.678;-122.174;2023-05-07T04:55:55;12.10;99.90
16305;DHT22;8261;47.678;-122.174;2023-05-07T04:58:27;12.10;99.90
16305;DHT22;8261;47.678;-122.174;2023-05-07T05:01:00;12.10;99.90
16305;DHT22;8261;47.678;-122.174;2023-05-07T05:03:34;12.00;99.90
16305;DHT22;8261;47.678;-122.174;2023-05-07T05:06:06;12.00;99.90
16305;DHT22;8261;47.678;-122.174;2023-05-07T05:08:38;11.90;99.90
16305;DHT22;8261;47.678;-122.174;2023-05-07T05:11:10;11.90;99.90
16305;DHT22;8261;47.678;-122.174;2023-05-07T05:13:41;11.90;99.90
16305;DHT22;8261;47.678;-122.174;2023-05-07T05:16:13;11.90;99.90
16305;DHT22;8261;47.678;-122.174;2023-05-07T05:18:47;11.80;99.90
16305;DHT22;8261;47.678;-122.174;2023-05-07T05:21:20;11.80;99.90
16305;DHT22;8261;47.678;-122.174;2023-05-07T05:23:52;11.70;99.90
16305;DHT22;8261;47.678;-122.174;2023-05-07T05:26:24;11.70;99.90
16305;DHT22;8261;47.678;-122.174;2023-05-07T05:28:55;11.60;99.90
16305;DHT22;8261;47.678;-122.174;2023-05-07T05:31:30;11.50;99.90
16305;DHT22;8261;47.678;-122.174;2023-05-07T05:34:05;11.40;99.90
16305;DHT22;8261;47.678;-122.174;2023-05-07T05:36:36;11.30;99.90
16305;DHT22;8261;47.678;-122.174;2023-05-07T05:39:08;11.20;99.90
16305;DHT22;8261;47.678;-122.174;2023-05-07T05:41:40;11.20;99.90
16305;DHT22;8261;47.678;-122.174;2023-05-07T05:44:12;11.10;99.90
16305;DHT22;8261;47.678;-122.174;2023-05-07T05:46:44;11.00;99.90
16305;DHT22;8261;47.678;-122.174;2023-05-07T05:49:18;10.80;99.90
16305;DHT22;8261;47.678;-122.174;2023-05-07T05:51:50;10.80;99.90
16305;DHT22;8261;47.678;-122.174;2023-05-07T05:54:23;10.70;99.90
16305;DHT22;8261;47.678;-122.174;2023-05-07T05:56:54;10.60;99.90
16305;DHT22;8261;47.678;-122.174;2023-05-07T05:59:25;10.60;99.90
16305;DHT22;8261;47.678;-122.174;2023-05-07T06:01:57;10.60;99.90
16305;DHT22;8261;47.678;-122.174;2023-05-07T06:04:31;10.50;99.90
16305;DHT22;8261;47.678;-122.174;2023-05-07T06:07:03;10.50;99.90
16305;DHT22;8261;47.678;-122.174;2023-05-07T06:09:35;10.40;99.90
16305;DHT22;8261;47.678;-122.174;2023-05-07T06:12:06;10.40;99.90
16305;DHT22;8261;47.678;-122.174;2023-05-07T06:14:38;10.30;99.90
16305;DHT22;8261;47.678;-122.174;2023-05-07T06:17:11;10.30;99.90
16305;DHT22;8261;47.678;-122.174;2023-05-07T06:19:50;10.20;99.90
16305;DHT22;8261;47.678;-122.174;2023-05-07T06:22:21;10.20;99.90
16305;DHT22;8261;47.678;-122.174;2023-05-07T06:24:53;10.20;99.90
16305;DHT22;8261;47.678;-122.174;2023-05-07T06:27:24;10.20;99.90
16305;DHT22;8261;47.678;-122.174;2023-05-07T06:29:57;10.10;99.90
16305;DHT22;8261;47.678;-122.174;2023-05-07T06:32:29;10.10;99.90
16305;DHT22;8261;47.678;-122.174;2023-05-07T06:35:03;10.10;99.90
16305;DHT22;8261;47.678;-122.174;2023-05-07T06:37:34;10.00;99.90
16305;DHT22;8261;47.678;-122.174;2023-05-07T06:40:08;9.90;99.90
16305;DHT22;8261;47.678;-122.174;2023-05-07T06:42:40;9.90;99.90
16305;DHT22;8261;47.678;-122.174;2023-05-07T06:45:12;10.00;99.90
16305;DHT22;8261;47.678;-122.174;2023-05-07T06:47:44;10.10;99.90
16305;DHT22;8261;47.678;-122.174;2023-05-07T06:50:17;10.10;99.90
16305;DHT22;8261;47.678;-122.174;2023-05-07T06:52:49;10.20;99.90
16305;DHT22;8261;47.678;-122.174;2023-05-07T06:55:21;10.20;99.90
16305;DHT22;8261;47.678;-122.174;2023-05-07T06:57:53;10.10;99.90
16305;DHT22;8261;47.678;-122.174;2023-05-07T07:00:24;10.20;99.90
16305;DHT22;8261;47.678;-122.174;2023-05-07T07:02:56;10.30;99.90
16305;DHT22;8261;47.678;-122.174;2023-05-07T07:05:30;10.30;99.90
16305;DHT22;8261;47.678;-122.174;2023-05-07T07:08:01;10.30;99.90
16305;DHT22;8261;47.678;-122.174;2023-05-07T07:10:33;10.30;99.90
16305;DHT22;8261;47.678;-122.174;2023-05-07T07:13:05;10.30;99.90
16305;DHT22;8261;47.678;-122.174;2023-05-07T07:15:37;10.20;99.90
16305;DHT22;8261;47.678;-122.174;2023-05-07T07:18:08;10.20;99.90
16305;DHT22;8261;47.678;-122.174;2023-05-07T07:20:42;10.10;99.90
16305;DHT22;8261;47.678;-122.174;2023-05-07T15:16:54;10.80;99.90
16305;DHT22;8261;47.678;-122.174;2023-05-07T15:19:27;10.90;99.90
16305;DHT22;8261;47.678;-122.174;2023-05-07T15:21:59;11.10;99.90
16305;DHT22;8261;47.678;-122.174;2023-05-07T15:24:32;11.10;99.90
16305;DHT22;8261;47.678;-122.174;2023-05-07T15:27:04;10.90;99.90
16305;DHT22;8261;47.678;-122.174;2023-05-07T15:29:36;10.80;99.90
16305;DHT22;8261;47.678;-122.174;2023-05-07T15:32:09;10.90;99.90
16305;DHT22;8261;47.678;-122.174;2023-05-07T15:34:42;11.10;99.90
16305;DHT22;8261;47.678;-122.174;2023-05-07T15:37:13;10.90;99.90
16305;DHT22;8261;47.678;-122.174;2023-05-07T15:39:45;11.00;99.90
16305;DHT22;8261;47.678;-122.174;2023-05-07T15:42:16;11.20;99.90
16305;DHT22;8261;47.678;-122.174;2023-05-07T15:44:48;11.30;99.90
16305;DHT22;8261;47.678;-122.174;2023-05-07T17:00:10;12.30;99.90
16305;DHT22;8261;47.678;-122.174;2023-05-07T17:02:42;12.40;99.90
16305;DHT22;8261;47.678;-122.174;2023-05-07T17:05:18;12.40;99.90
16305;DHT22;8261;47.678;-122.174;2023-05-07T17:10:28;12.80;99.90
16305;DHT22;8261;47.678;-122.174;2023-05-07T17:18:18;13.10;99.90
16305;DHT22;8261;47.678;-122.174;2023-05-07T17:23:21;12.60;99.90
16305;DHT22;8261;47.678;-122.174;2023-05-07T17:31:14;12.80;99.90
16305;DHT22;8261;47.678;-122.174;2023-05-07T17:33:47;12.90;99.90
16305;DHT22;8261;47.678;-122.174;2023-05-07T17:36:21;13.10;99.90
16305;DHT22;8261;47.678;-122.174;2023-05-07T17:39:29;12.90;99.90
16305;DHT22;8261;47.678;-122.174;2023-05-07T17:42:00;12.80;99.90
16305;DHT22;8261;47.678;-122.174;2023-05-07T17:44:32;12.90;99.90
16305;DHT22;8261;47.678;-122.174;2023-05-07T17:47:07;13.10;99.90
16305;DHT22;8261;47.678;-122.174;2023-05-07T17:49:40;13.30;99.90
16305;DHT22;8261;47.678;-122.174;2023-05-07T17:52:11;13.30;99.90
16305;DHT22;8261;47.678;-122.174;2023-05-07T17:54:43;13.10;99.90
16305;DHT22;8261;47.678;-122.174;2023-05-07T17:57:16;13.20;99.90
16305;DHT22;8261;47.678;-122.174;2023-05-07T17:59:48;13.30;99.90
16305;DHT22;8261;47.678;-122.174;2023-05-07T18:02:23;13.50;99.90
16305;DHT22;8261;47.678;-122.174;2023-05-07T18:04:54;13.10;99.90
16305;DHT22;8261;47.678;-122.174;2023-05-07T18:07:26;13.20;99.90
16305;DHT22;8261;47.678;-122.174;2023-05-07T18:09:57;13.20;99.90
16305;DHT22;8261;47.678;-122.174;2023-05-07T18:12:28;13.30;99.90
16305;DHT22;8261;47.678;-122.174;2023-05-07T18:15:01;13.30;99.90
16305;DHT22;8261;47.678;-122.174;2023-05-07T18:17:34;13.00;99.90
16305;DHT22;8261;47.678;-122.174;2023-05-07T18:20:07;13.10;99.90
16305;DHT22;8261;47.678;-122.174;2023-05-07T18:22:40;13.00;99.90
16305;DHT22;8261;47.678;-122.174;2023-05-07T18:25:11;13.00;99.90
16305;DHT22;8261;47.678;-122.174;2023-05-07T18:27:43;13.00;99.90
16305;DHT22;8261;47.678;-122.174;2023-05-07T18:30:14;13.20;99.90
16305;DHT22;8261;47.678;-122.174;2023-05-07T18:32:48;13.00;99.90
16305;DHT22;8261;47.678;-122.174;2023-05-07T18:35:19;13.00;99.90
16305;DHT22;8261;47.678;-122.174;2023-05-07T18:37:50;13.10;99.90
16305;DHT22;8261;47.678;-122.174;2023-05-07T18:40:21;13.40;99.90
16305;DHT22;8261;47.678;-122.174;2023-05-07T18:42:53;13.50;99.90
16305;DHT22;8261;47.678;-122.174;2023-05-07T18:45:24;13.70;99.90
16305;DHT22;8261;47.678;-122.174;2023-05-07T18:47:57;13.80;99.90
16305;DHT22;8261;47.678;-122.174;2023-05-07T18:50:29;14.00;99.90
16305;DHT22;8261;47.678;-122.174;2023-05-07T18:53:01;14.10;99.90
16305;DHT22;8261;47.678;-122.174;2023-05-07T18:55:32;14.30;99.90
16305;DHT22;8261;47.678;-122.174;2023-05-07T18:58:03;14.40;99.90
16305;DHT22;8261;47.678;-122.174;2023-05-07T19:00:34;14.50;99.90
16305;DHT22;8261;47.678;-122.174;2023-05-07T19:03:08;14.60;99.90
16305;DHT22;8261;47.678;-122.174;2023-05-07T19:05:40;14.40;99.90
16305;DHT22;8261;47.678;-122.174;2023-05-07T19:08:12;14.30;99.90
16305;DHT22;8261;47.678;-122.174;2023-05-07T19:10:43;14.40;99.90
16305;DHT22;8261;47.678;-122.174;2023-05-07T19:13:17;14.50;99.90
16305;DHT22;8261;47.678;-122.174;2023-05-07T19:15:48;14.50;99.90
16305;DHT22;8261;47.678;-122.174;2023-05-07T19:18:21;14.70;99.90
16305;DHT22;8261;47.678;-122.174;2023-05-07T19:20:53;14.80;99.90
16305;DHT22;8261;47.678;-122.174;2023-05-07T19:23:25;14.80;99.90
16305;DHT22;8261;47.678;-122.174;2023-05-07T19:25:56;14.60;99.90
16305;DHT22;8261;47.678;-122.174;2023-05-07T19:28:28;14.50;99.90
16305;DHT22;8261;47.678;-122.174;2023-05-07T19:30:59;14.50;99.90
16305;DHT22;8261;47.678;-122.174;2023-05-07T19:33:32;14.70;99.90
16305;DHT22;8261;47.678;-122.174;2023-05-07T19:36:04;15.00;99.90
16305;DHT22;8261;47.678;-122.174;2023-05-07T19:38:36;15.50;99.90
16305;DHT22;8261;47.678;-122.174;2023-05-07T19:41:08;15.50;99.90
16305;DHT22;8261;47.678;-122.174;2023-05-07T19:43:40;15.60;99.90
16305;DHT22;8261;47.678;-122.174;2023-05-07T19:46:11;15.40;99.90
16305;DHT22;8261;47.678;-122.174;2023-05-07T19:48:46;15.60;99.90
16305;DHT22;8261;47.678;-122.174;2023-05-07T19:51:17;15.70;99.90
16305;DHT22;8261;47.678;-122.174;2023-05-07T19:53:48;15.60;99.90
16305;DHT22;8261;47.678;-122.174;2023-05-07T19:56:20;15.70;99.90
16305;DHT22;8261;47.678;-122.174;2023-05-07T19:58:52;15.50;99.90
16305;DHT22;8261;47.678;-122.174;2023-05-07T20:01:23;15.20;99.90
16305;DHT22;8261;47.678;-122.174;2023-05-07T20:03:58;15.30;99.90
16305;DHT22;8261;47.678;-122.174;2023-05-07T20:06:29;15.40;99.90
16305;DHT22;8261;47.678;-122.174;2023-05-07T20:09:00;15.60;99.90
16305;DHT22;8261;47.678;-122.174;2023-05-07T20:11:31;16.00;99.90
16305;DHT22;8261;47.678;-122.174;2023-05-07T20:14:03;16.10;99.90
16305;DHT22;8261;47.678;-122.174;2023-05-07T20:16:34;16.10;99.90
16305;DHT22;8261;47.678;-122.174;2023-05-07T20:19:07;15.90;99.90
16305;DHT22;8261;47.678;-122.174;2023-05-07T20:21:38;15.80;99.90
16305;DHT22;8261;47.678;-122.174;2023-05-07T20:24:10;15.60;99.90
16305;DHT22;8261;47.678;-122.174;2023-05-07T20:26:41;15.70;99.90
16305;DHT22;8261;47.678;-122.174;2023-05-07T20:29:12;15.60;99.90
16305;DHT22;8261;47.678;-122.174;2023-05-07T20:31:44;15.70;99.90
16305;DHT22;8261;47.678;-122.174;2023-05-07T20:34:17;15.50;99.90
16305;DHT22;8261;47.678;-122.174;2023-05-07T20:36:48;15.50;99.90
16305;DHT22;8261;47.678;-122.174;2023-05-07T20:39:20;15.50;99.90
16305;DHT22;8261;47.678;-122.174;2023-05-07T20:41:51;15.50;99.90
16305;DHT22;8261;47.678;-122.174;2023-05-07T20:44:22;15.50;99.90
16305;DHT22;8261;47.678;-122.174;2023-05-07T20:46:54;15.80;99.90
16305;DHT22;8261;47.678;-122.174;2023-05-07T20:49:27;15.60;99.90
16305;DHT22;8261;47.678;-122.174;2023-05-07T20:51:58;15.60;99.90
16305;DHT22;8261;47.678;-122.174;2023-05-07T20:54:29;15.70;99.90
16305;DHT22;8261;47.678;-122.174;2023-05-07T20:57:00;15.80;99.90
16305;DHT22;8261;47.678;-122.174;2023-05-07T20:59:32;15.90;99.90
16305;DHT22;8261;47.678;-122.174;2023-05-07T21:02:03;16.10;99.90
16305;DHT22;8261;47.678;-122.174;2023-05-07T21:04:37;16.40;99.90
16305;DHT22;8261;47.678;-122.174;2023-05-07T21:07:09;16.40;99.90
16305;DHT22;8261;47.678;-122.174;2023-05-07T21:09:40;16.40;99.90
16305;DHT22;8261;47.678;-122.174;2023-05-07T21:12:11;16.20;99.90
16305;DHT22;8261;47.678;-122.174;2023-05-07T21:14:42;16.10;99.90
16305;DHT22;8261;47.678;-122.174;2023-05-07T21:17:13;16.10;99.90
16305;DHT22;8261;47.678;-122.174;2023-05-07T21:19:46;16.00;99.90
16305;DHT22;8261;47.678;-122.174;2023-05-07T21:22:17;16.00;99.90
16305;DHT22;8261;47.678;-122.174;2023-05-07T21:24:48;16.20;99.90
16305;DHT22;8261;47.678;-122.174;2023-05-07T21:27:19;16.30;99.90
16305;DHT22;8261;47.678;-122.174;2023-05-07T21:29:51;16.10;99.90
16305;DHT22;8261;47.678;-122.174;2023-05-07T21:32:26;15.90;99.90
16305;DHT22;8261;47.678;-122.174;2023-05-07T21:35:00;16.10;99.90
16305;DHT22;8261;47.678;-122.174;2023-05-07T21:37:31;15.70;99.90
16305;DHT22;8261;47.678;-122.174;2023-05-07T21:40:03;15.90;99.90
16305;DHT22;8261;47.678;-122.174;2023-05-07T21:42:34;16.10;99.90
16305;DHT22;8261;47.678;-122.174;2023-05-07T21:45:06;16.20;99.90
16305;DHT22;8261;47.678;-122.174;2023-05-07T21:47:38;16.50;99.90
16305;DHT22;8261;47.678;-122.174;2023-05-07T21:50:12;17.00;99.90
16305;DHT22;8261;47.678;-122.174;2023-05-07T21:52:44;17.40;99.90
16305;DHT22;8261;47.678;-122.174;2023-05-07T21:55:17;17.90;99.90
16305;DHT22;8261;47.678;-122.174;2023-05-07T21:57:48;18.10;99.90
16305;DHT22;8261;47.678;-122.174;2023-05-07T22:00:32;18.00;99.90
16305;DHT22;8261;47.678;-122.174;2023-05-07T22:03:03;18.30;99.90
16305;DHT22;8261;47.678;-122.174;2023-05-07T22:05:36;17.90;99.90
16305;DHT22;8261;47.678;-122.174;2023-05-07T22:08:07;17.70;99.90
16305;DHT22;8261;47.678;-122.174;2023-05-07T22:10:39;17.70;99.90
16305;DHT22;8261;47.678;-122.174;2023-05-07T22:13:10;18.10;99.90
16305;DHT22;8261;47.678;-122.174;2023-05-07T22:15:42;17.90;99.90
16305;DHT22;8261;47.678;-122.174;2023-05-07T22:18:24;17.80;99.90
16305;DHT22;8261;47.678;-122.174;2023-05-07T22:20:58;17.70;99.90
16305;DHT22;8261;47.678;-122.174;2023-05-07T22:23:29;17.90;99.90
16305;DHT22;8261;47.678;-122.174;2023-05-07T22:26:00;18.30;99.90
16305;DHT22;8261;47.678;-122.174;2023-05-07T22:28:31;18.80;99.90
16305;DHT22;8261;47.678;-122.174;2023-05-07T22:31:02;18.70;99.90
16305;DHT22;8261;47.678;-122.174;2023-05-07T22:33:34;18.60;99.90
16305;DHT22;8261;47.678;-122.174;2023-05-07T22:36:08;18.50;99.90
16305;DHT22;8261;47.678;-122.174;2023-05-07T22:38:39;18.50;99.90
16305;DHT22;8261;47.678;-122.174;2023-05-07T22:41:10;19.00;99.90
16305;DHT22;8261;47.678;-122.174;2023-05-07T22:43:42;18.90;99.90
16305;DHT22;8261;47.678;-122.174;2023-05-07T22:46:13;19.10;99.90
16305;DHT22;8261;47.678;-122.174;2023-05-07T22:48:45;19.50;99.90
16305;DHT22;8261;47.678;-122.174;2023-05-07T22:51:17;19.70;99.90
16305;DHT22;8261;47.678;-122.174;2023-05-07T22:53:49;19.70;99.90
16305;DHT22;8261;47.678;-122.174;2023-05-07T22:56:21;19.50;99.90
16305;DHT22;8261;47.678;-122.174;2023-05-07T22:58:52;19.10;99.90
16305;DHT22;8261;47.678;-122.174;2023-05-07T23:01:23;19.00;99.90
16305;DHT22;8261;47.678;-122.174;2023-05-07T23:03:55;19.20;99.90
16305;DHT22;8261;47.678;-122.174;2023-05-07T23:06:28;19.40;99.90
16305;DHT22;8261;47.678;-122.174;2023-05-07T23:08:59;19.30;99.90
16305;DHT22;8261;47.678;-122.174;2023-05-07T23:11:32;19.20;99.90
16305;DHT22;8261;47.678;-122.174;2023-05-07T23:14:04;18.80;99.90
16305;DHT22;8261;47.678;-122.174;2023-05-07T23:16:35;18.70;99.90
16305;DHT22;8261;47.678;-122.174;2023-05-07T23:19:08;18.30;99.90
16305;DHT22;8261;47.678;-122.174;2023-05-07T23:21:42;17.80;99.90
16305;DHT22;8261;47.678;-122.174;2023-05-07T23:24:14;17.40;99.90
16305;DHT22;8261;47.678;-122.174;2023-05-07T23:26:46;17.60;99.90
16305;DHT22;8261;47.678;-122.174;2023-05-07T23:29:17;17.60;99.90
16305;DHT22;8261;47.678;-122.174;2023-05-07T23:31:49;17.40;99.90
16305;DHT22;8261;47.678;-122.174;2023-05-07T23:34:20;17.50;99.90
16305;DHT22;8261;47.678;-122.174;2023-05-07T23:36:54;17.60;99.90
16305;DHT22;8261;47.678;-122.174;2023-05-07T23:39:25;17.60;99.90
16305;DHT22;8261;47.678;-122.174;2023-05-07T23:41:56;17.50;99.90
16305;DHT22;8261;47.678;-122.174;2023-05-07T23:44:28;17.40;99.90
16305;DHT22;8261;47.678;-122.174;2023-05-07T23:47:00;17.40;99.90
16305;DHT22;8261;47.678;-122.174;2023-05-07T23:49:32;17.20;99.90
16305;DHT22;8261;47.678;-122.174;2023-05-07T23:52:05;17.20;99.90
16305;DHT22;8261;47.678;-122.174;2023-05-07T23:54:37;17.20;99.90
16305;DHT22;8261;47.678;-122.174;2023-05-07T23:57:10;17.10;99.90
16305;DHT22;8261;47.678;-122.174;2023-05-07T23:59:43;17.30;99.90
